createdAt,value
2023-02-14T00:06:20.857Z,5.09
2023-02-14T00:16:33.844Z,5.13
2023-02-14T00:26:46.868Z,5.04
2023-02-14T00:36:59.843Z,5.12
2023-02-14T00:47:12.873Z,5.12
2023-02-14T00:57:25.868Z,5.06
2023-02-14T01:07:38.869Z,5.00
2023-02-14T01:17:51.870Z,5.00
2023-02-14T01:28:04.918Z,5.00
2023-02-14T01:38:17.879Z,4.99
2023-02-14T01:48:30.929Z,4.75
2023-02-14T01:58:45.883Z,4.65
2023-02-14T02:09:18.934Z,4.60
2023-02-14T02:19:52.948Z,4.67
2023-02-14T02:30:23.019Z,4.64
2023-02-14T02:40:35.927Z,4.77
2023-02-14T02:51:09.972Z,4.77
2023-02-14T03:01:38.976Z,4.71
2023-02-14T03:12:00.960Z,4.61
2023-02-14T03:22:44.961Z,4.71
2023-02-14T03:33:13.997Z,4.61
2023-02-14T03:43:30.948Z,4.61
2023-02-14T03:53:47.007Z,4.55
2023-02-14T04:04:09.007Z,4.51
2023-02-14T04:14:22.004Z,4.56
2023-02-14T04:24:35.035Z,4.43
2023-02-14T04:34:47.989Z,4.52
2023-02-14T04:45:03.768Z,4.48
2023-02-14T04:55:17.999Z,4.46
2023-02-14T05:05:37.053Z,4.42
2023-02-14T05:15:50.058Z,4.46
2023-02-14T05:26:03.063Z,4.46
2023-02-14T05:36:17.035Z,4.31
2023-02-14T05:46:30.057Z,4.14
2023-02-14T05:56:43.064Z,4.24
2023-02-14T06:06:56.087Z,4.18
2023-02-14T06:17:09.106Z,4.20
2023-02-14T06:27:22.097Z,4.21
2023-02-14T06:37:35.087Z,4.23
2023-02-14T06:47:48.121Z,4.25
2023-02-14T06:58:01.088Z,4.44
2023-02-14T07:08:16.137Z,4.58
2023-02-14T07:18:29.094Z,4.63
2023-02-14T07:28:44.857Z,4.64
2023-02-14T07:38:58.108Z,4.77
2023-02-14T07:49:11.160Z,4.78
2023-02-14T07:59:25.930Z,4.88
2023-02-14T08:09:39.164Z,5.04
2023-02-14T08:19:52.139Z,5.18
2023-02-14T08:30:12.226Z,5.37
2023-02-14T08:40:25.140Z,5.51
2023-02-14T08:50:38.162Z,5.56
2023-02-14T09:00:51.265Z,5.78
2023-02-14T09:11:04.270Z,6.09
2023-02-14T09:21:32.161Z,6.55
2023-02-14T09:31:45.287Z,6.58
2023-02-14T09:42:31.196Z,6.87
2023-02-14T09:52:43.220Z,6.71
2023-02-14T10:03:05.197Z,7.22
2023-02-14T10:13:20.248Z,7.31
2023-02-14T10:23:57.215Z,7.40
2023-02-14T10:34:27.264Z,7.57
2023-02-14T10:45:10.213Z,7.82
2023-02-14T10:55:32.757Z,7.93
2023-02-14T11:05:55.274Z,7.80
2023-02-14T11:16:10.243Z,7.95
2023-02-14T11:26:33.305Z,8.03
2023-02-14T11:36:50.248Z,7.55
2023-02-14T11:47:06.456Z,7.63
2023-02-14T11:57:25.260Z,7.51
2023-02-14T12:07:44.338Z,7.48
2023-02-14T12:18:01.282Z,7.80
2023-02-14T12:28:19.358Z,7.57
2023-02-14T12:38:58.323Z,7.57
2023-02-14T12:49:44.326Z,7.63
2023-02-14T13:00:20.349Z,7.40
2023-02-14T13:10:33.371Z,7.35
2023-02-14T13:20:49.358Z,7.47
2023-02-14T13:31:03.763Z,7.45
2023-02-14T13:41:17.368Z,7.50
2023-02-14T13:51:30.376Z,7.22
2023-02-14T14:01:48.437Z,7.28
2023-02-14T14:12:01.388Z,7.24
2023-02-14T14:22:24.397Z,7.31
2023-02-14T14:32:39.369Z,7.15
2023-02-14T14:42:52.421Z,7.34
2023-02-14T14:53:08.398Z,7.16
2023-02-14T15:03:29.443Z,7.14
2023-02-14T15:14:01.421Z,6.86
2023-02-14T15:24:20.453Z,6.85
2023-02-14T15:34:40.464Z,6.72
2023-02-14T15:44:53.456Z,6.70
2023-02-14T15:55:06.461Z,6.65
2023-02-14T16:05:34.463Z,6.45
2023-02-14T16:15:52.519Z,6.40
2023-02-14T16:26:05.468Z,6.39
2023-02-14T16:36:27.464Z,6.39
2023-02-14T16:46:43.512Z,6.43
2023-02-14T16:57:09.460Z,6.35
2023-02-14T17:07:28.530Z,6.25
2023-02-14T17:17:43.492Z,6.07
2023-02-14T17:27:57.528Z,6.00
2023-02-14T17:38:10.541Z,6.09
2023-02-14T17:48:23.541Z,5.95
2023-02-14T17:58:36.523Z,5.90
2023-02-14T18:09:05.574Z,5.92
2023-02-14T18:19:20.542Z,5.92
2023-02-14T18:29:33.711Z,5.75
2023-02-14T18:39:46.563Z,5.71
2023-02-14T18:49:59.669Z,5.72
2023-02-14T19:00:14.559Z,5.74
2023-02-14T19:10:27.680Z,5.75
2023-02-14T19:20:40.604Z,5.65
2023-02-14T19:30:53.749Z,5.60
2023-02-14T19:41:06.575Z,5.45
2023-02-14T19:51:29.864Z,5.52
2023-02-14T20:01:46.629Z,5.37
2023-02-14T20:12:03.865Z,5.51
2023-02-14T20:22:16.647Z,5.53
2023-02-14T20:32:29.839Z,5.35
2023-02-14T20:42:42.639Z,5.36
2023-02-14T20:52:55.740Z,5.34
2023-02-14T21:03:08.700Z,5.32
2023-02-14T21:13:21.638Z,5.34
2023-02-14T21:23:34.785Z,5.24
2023-02-14T21:33:47.676Z,5.15
2023-02-14T21:44:02.730Z,4.89
2023-02-14T21:54:23.692Z,4.99
2023-02-14T22:04:42.725Z,4.89
2023-02-14T22:14:54.685Z,4.90
2023-02-14T22:25:07.741Z,4.89
2023-02-14T22:35:20.686Z,4.94
2023-02-14T22:45:33.733Z,4.69
2023-02-14T22:55:47.715Z,4.81
2023-02-14T23:06:13.782Z,4.83
2023-02-14T23:16:44.721Z,4.83
2023-02-14T23:26:57.772Z,4.56
2023-02-14T23:37:10.736Z,4.41
2023-02-14T23:47:23.768Z,4.55
2023-02-14T23:57:36.749Z,4.59
